createdAt,value
2022-09-09T00:02:43.382Z,16.67
2022-09-09T00:06:30.622Z,16.73
2022-09-09T00:09:39.488Z,16.88
2022-09-09T00:13:04.531Z,16.90
2022-09-09T00:16:27.231Z,16.89
2022-09-09T00:19:50.709Z,16.87
2022-09-09T00:23:00.429Z,16.89
2022-09-09T00:26:26.575Z,16.82
2022-09-09T00:29:51.529Z,16.74
2022-09-09T00:32:57.108Z,16.71
2022-09-09T00:36:16.061Z,16.65
2022-09-09T00:39:24.606Z,16.61
2022-09-09T00:42:44.329Z,16.54
2022-09-09T00:46:18.727Z,16.51
2022-09-09T00:49:59.306Z,16.49
2022-09-09T00:53:30.609Z,16.48
2022-09-09T00:56:38.810Z,16.59
2022-09-09T01:00:11.422Z,16.61
2022-09-09T01:03:53.764Z,16.61
2022-09-09T01:07:00.199Z,16.67
2022-09-09T01:10:18.248Z,16.60
2022-09-09T01:13:29.043Z,16.56
2022-09-09T01:16:37.667Z,16.50
2022-09-09T01:20:21.173Z,16.47
2022-09-09T01:23:54.754Z,16.40
2022-09-09T01:27:07.392Z,16.37
2022-09-09T01:30:13.202Z,16.32
2022-09-09T01:33:18.983Z,16.28
2022-09-09T01:36:37.727Z,16.24
2022-09-09T01:39:43.537Z,16.19
2022-09-09T01:42:49.913Z,16.05
2022-09-09T01:45:55.828Z,15.96
2022-09-09T01:49:02.845Z,15.93
2022-09-09T01:52:11.668Z,15.79
2022-09-09T01:55:18.100Z,15.78
2022-09-09T01:58:52.168Z,15.65
2022-09-09T02:02:21.363Z,15.59
2022-09-09T02:05:53.258Z,15.57
2022-09-09T02:09:04.923Z,15.62
2022-09-09T02:12:28.309Z,15.73
2022-09-09T02:15:53.103Z,15.80
2022-09-09T02:19:06.736Z,15.85
2022-09-09T02:22:15.522Z,15.85
2022-09-09T02:25:24.063Z,15.82
2022-09-09T02:28:31.827Z,15.76
2022-09-09T02:31:38.847Z,15.76
2022-09-09T02:34:47.903Z,15.71
2022-09-09T02:37:55.527Z,15.67
2022-09-09T02:41:01.313Z,15.61
2022-09-09T02:44:00.242Z,15.61
2022-09-09T02:47:23.227Z,15.57
2022-09-09T02:50:35.998Z,15.51
2022-09-09T02:53:46.679Z,15.41
2022-09-09T02:56:58.309Z,15.40
2022-09-09T03:00:06.769Z,15.37
2022-09-09T03:03:12.331Z,15.22
2022-09-09T03:06:21.135Z,15.15
2022-09-09T03:09:27.919Z,15.09
2022-09-09T03:12:34.328Z,14.95
2022-09-09T03:15:40.753Z,15.01
2022-09-09T03:18:47.610Z,14.88
2022-09-09T03:21:53.297Z,14.97
2022-09-09T03:25:02.016Z,15.03
2022-09-09T03:28:01.889Z,14.98
2022-09-09T03:31:08.258Z,14.99
2022-09-09T03:34:14.673Z,14.94
2022-09-09T03:37:19.723Z,14.84
2022-09-09T03:40:20.638Z,14.77
2022-09-09T03:43:27.599Z,14.93
2022-09-09T03:46:37.553Z,14.98
2022-09-09T03:49:44.122Z,15.00
2022-09-09T03:52:56.491Z,15.11
2022-09-09T03:56:07.802Z,15.15
2022-09-09T03:59:13.785Z,15.26
2022-09-09T04:02:19.453Z,15.36
2022-09-09T04:05:25.961Z,15.46
2022-09-09T04:08:33.436Z,15.54
2022-09-09T04:11:33.683Z,15.71
2022-09-09T04:14:40.953Z,15.94
2022-09-09T04:17:47.130Z,16.07
2022-09-09T04:20:53.187Z,16.20
2022-09-09T04:23:59.321Z,16.28
2022-09-09T04:27:05.441Z,16.48
2022-09-09T04:30:11.912Z,16.63
2022-09-09T04:33:17.947Z,16.95
2022-09-09T04:36:24.025Z,17.16
2022-09-09T04:39:31.270Z,17.28
2022-09-09T04:42:37.896Z,17.45
2022-09-09T04:45:45.581Z,17.62
2022-09-09T04:48:54.334Z,17.70
2022-09-09T04:52:02.333Z,18.02
2022-09-09T04:55:09.652Z,18.23
2022-09-09T04:58:21.701Z,18.28
2022-09-09T05:01:36.311Z,18.40
2022-09-09T05:04:44.190Z,18.67
2022-09-09T05:07:49.789Z,18.91
2022-09-09T05:10:58.257Z,19.13
2022-09-09T05:14:06.086Z,19.33
2022-09-09T05:17:11.855Z,19.52
2022-09-09T05:20:18.550Z,19.66
2022-09-09T05:23:26.264Z,19.86
2022-09-09T05:26:28.021Z,20.08
2022-09-09T05:29:20.948Z,20.21
2022-09-09T05:32:27.384Z,20.29
2022-09-09T05:35:33.108Z,20.43
2022-09-09T05:38:40.938Z,20.56
2022-09-09T05:41:46.195Z,20.68
2022-09-09T05:44:50.619Z,20.83
2022-09-09T05:47:40.216Z,21.00
2022-09-09T05:50:32.850Z,21.15
2022-09-09T05:53:18.739Z,21.29
2022-09-09T05:56:18.622Z,21.43
2022-09-09T05:59:14.103Z,21.59
2022-09-09T06:02:21.344Z,21.80
2022-09-09T06:05:30.595Z,21.95
2022-09-09T06:08:35.953Z,22.12
2022-09-09T06:11:44.845Z,22.32
2022-09-09T06:14:51.780Z,22.38
2022-09-09T06:18:01.271Z,22.63
2022-09-09T06:24:47.746Z,22.75
2022-09-09T06:27:56.763Z,22.97
2022-09-09T06:31:05.417Z,23.05
2022-09-09T06:34:14.095Z,23.13
2022-09-09T06:37:24.460Z,23.16
2022-09-09T06:40:32.968Z,23.07
2022-09-09T06:43:43.122Z,23.13
2022-09-09T06:46:48.131Z,23.37
2022-09-09T06:49:53.042Z,23.47
2022-09-09T06:53:02.560Z,23.70
2022-09-09T06:56:11.324Z,23.82
2022-09-09T06:59:20.676Z,23.91
2022-09-09T07:02:27.650Z,23.84
2022-09-09T07:05:34.015Z,24.14
2022-09-09T07:08:40.918Z,24.26
2022-09-09T07:11:51.539Z,24.26
2022-09-09T07:14:58.666Z,24.35
2022-09-09T07:18:08.750Z,24.40
2022-09-09T07:21:15.938Z,24.37
2022-09-09T07:24:24.267Z,24.57
2022-09-09T07:27:33.504Z,24.53
2022-09-09T07:30:46.210Z,24.59
2022-09-09T07:33:55.859Z,24.80
2022-09-09T07:36:57.787Z,24.85
2022-09-09T07:39:44.524Z,24.82
2022-09-09T07:42:36.680Z,24.80
2022-09-09T07:45:43.448Z,24.64
2022-09-09T07:48:48.979Z,24.74
2022-09-09T07:52:01.933Z,24.86
2022-09-09T07:55:11.478Z,25.08
2022-09-09T07:58:17.228Z,25.13
2022-09-09T08:01:28.197Z,25.11
2022-09-09T08:04:29.204Z,25.01
2022-09-09T08:07:36.828Z,24.99
2022-09-09T08:10:43.348Z,24.99
2022-09-09T08:13:53.983Z,24.85
2022-09-09T08:17:05.259Z,24.81
2022-09-09T08:20:13.329Z,24.91
2022-09-09T08:23:19.565Z,25.04
2022-09-09T08:26:33.057Z,25.38
2022-09-09T08:29:38.177Z,25.45
2022-09-09T08:32:45.947Z,25.65
2022-09-09T08:35:51.510Z,25.84
2022-09-09T08:38:59.416Z,25.62
2022-09-09T08:42:54.477Z,25.77
2022-09-09T08:46:33.582Z,25.76
2022-09-09T08:50:06.332Z,25.79
2022-09-09T08:53:24.684Z,25.82
2022-09-09T08:56:37.773Z,25.81
2022-09-09T08:59:47.130Z,25.93
2022-09-09T09:03:31.954Z,25.66
2022-09-09T09:07:09.099Z,25.72
2022-09-09T09:10:42.237Z,25.58
2022-09-09T09:13:57.977Z,25.61
2022-09-09T09:17:17.468Z,25.51
2022-09-09T09:20:30.358Z,25.51
2022-09-09T09:23:41.387Z,25.45
2022-09-09T09:26:49.565Z,25.28
2022-09-09T09:30:23.870Z,25.13
2022-09-09T09:33:15.178Z,25.21
2022-09-09T09:36:23.056Z,25.23
2022-09-09T09:43:16.494Z,25.66
2022-09-09T09:46:30.861Z,25.60
2022-09-09T09:49:37.704Z,25.74
2022-09-09T09:52:44.878Z,25.80
2022-09-09T09:55:49.928Z,25.90
2022-09-09T09:59:13.310Z,26.12
2022-09-09T10:02:37.381Z,26.36
2022-09-09T10:05:46.695Z,26.63
2022-09-09T10:08:57.144Z,26.75
2022-09-09T10:12:23.334Z,26.72
2022-09-09T10:15:31.480Z,26.65
2022-09-09T10:18:56.047Z,26.59
2022-09-09T10:22:11.259Z,26.79
2022-09-09T10:25:40.910Z,26.65
2022-09-09T10:29:07.800Z,26.72
2022-09-09T10:33:01.108Z,26.83
2022-09-09T10:36:19.296Z,26.75
2022-09-09T10:39:49.182Z,26.92
2022-09-09T10:42:54.985Z,27.01
2022-09-09T10:46:06.477Z,26.96
2022-09-09T10:49:31.649Z,26.99
2022-09-09T10:53:06.962Z,26.98
2022-09-09T10:56:16.557Z,26.86
2022-09-09T10:59:25.302Z,27.07
2022-09-09T11:02:23.656Z,27.12
2022-09-09T11:05:41.328Z,27.05
2022-09-09T11:08:36.669Z,27.17
2022-09-09T11:11:47.226Z,26.94
2022-09-09T11:15:18.885Z,26.80
2022-09-09T11:18:37.330Z,26.69
2022-09-09T11:21:49.712Z,26.70
2022-09-09T11:25:02.596Z,26.73
2022-09-09T11:28:37.256Z,26.78
2022-09-09T11:31:55.423Z,26.61
2022-09-09T11:35:09.886Z,26.31
2022-09-09T11:38:40.571Z,26.10
2022-09-09T11:41:53.133Z,26.10
2022-09-09T11:45:03.001Z,26.01
2022-09-09T11:48:10.674Z,26.13
2022-09-09T11:51:26.006Z,26.02
2022-09-09T11:54:49.391Z,25.83
2022-09-09T11:57:55.291Z,25.79
2022-09-09T12:01:02.829Z,25.73
2022-09-09T12:04:28.066Z,25.79
2022-09-09T12:07:53.015Z,25.88
2022-09-09T12:11:03.189Z,25.95
2022-09-09T12:14:11.491Z,25.98
2022-09-09T12:17:38.180Z,25.99
2022-09-09T12:20:54.570Z,26.17
2022-09-09T12:24:10.225Z,26.22
2022-09-09T12:27:40.503Z,26.15
2022-09-09T12:30:56.068Z,26.15
2022-09-09T12:34:01.688Z,26.17
2022-09-09T12:37:11.414Z,26.15
2022-09-09T12:40:20.798Z,26.10
2022-09-09T12:43:37.205Z,26.21
2022-09-09T12:46:54.549Z,26.17
2022-09-09T12:49:59.007Z,25.82
2022-09-09T12:53:06.474Z,25.83
2022-09-09T12:56:24.094Z,26.07
2022-09-09T12:59:41.626Z,26.03
2022-09-09T13:02:48.172Z,26.07
2022-09-09T13:05:54.218Z,25.97
2022-09-09T13:08:59.555Z,25.79
2022-09-09T13:12:08.485Z,25.67
2022-09-09T13:15:15.178Z,25.82
2022-09-09T13:18:24.815Z,25.74
2022-09-09T13:21:30.934Z,25.77
2022-09-09T13:24:51.591Z,25.82
2022-09-09T13:28:00.361Z,25.71
2022-09-09T13:31:23.926Z,25.62
2022-09-09T13:34:43.047Z,25.56
2022-09-09T13:37:53.684Z,25.38
2022-09-09T13:41:14.937Z,25.51
2022-09-09T13:44:21.356Z,25.51
2022-09-09T13:47:34.910Z,25.53
2022-09-09T13:50:44.792Z,25.54
2022-09-09T13:53:49.881Z,25.53
2022-09-09T13:56:57.869Z,25.52
2022-09-09T14:00:05.476Z,25.52
2022-09-09T14:03:10.717Z,25.55
2022-09-09T14:06:09.231Z,25.54
2022-09-09T14:09:14.546Z,25.38
2022-09-09T14:12:19.508Z,25.34
2022-09-09T14:15:28.244Z,25.40
2022-09-09T14:18:33.782Z,25.22
2022-09-09T14:21:40.561Z,25.20
2022-09-09T14:24:45.267Z,25.11
2022-09-09T14:27:50.735Z,25.05
2022-09-09T14:30:56.574Z,24.88
2022-09-09T14:34:02.829Z,24.89
2022-09-09T14:37:03.061Z,24.94
2022-09-09T14:40:08.449Z,24.82
2022-09-09T14:43:14.674Z,24.84
2022-09-09T14:46:26.445Z,24.91
2022-09-09T14:49:32.166Z,24.83
2022-09-09T14:52:37.247Z,24.91
2022-09-09T14:55:42.966Z,24.89
2022-09-09T14:58:48.676Z,24.82
2022-09-09T15:01:54.024Z,24.84
2022-09-09T15:05:00.163Z,24.71
2022-09-09T15:08:06.719Z,24.79
2022-09-09T15:11:18.575Z,24.68
2022-09-09T15:14:26.017Z,24.61
2022-09-09T15:17:33.263Z,24.56
2022-09-09T15:20:40.391Z,24.54
2022-09-09T15:23:47.428Z,24.34
2022-09-09T15:26:53.638Z,24.40
2022-09-09T15:29:59.579Z,24.22
2022-09-09T15:33:09.640Z,24.12
2022-09-09T15:36:13.278Z,23.88
2022-09-09T15:39:23.262Z,23.93
2022-09-09T15:42:28.858Z,23.78
2022-09-09T15:45:34.916Z,23.60
2022-09-09T15:48:47.315Z,23.51
2022-09-09T15:51:54.485Z,23.41
2022-09-09T15:54:59.923Z,23.17
2022-09-09T15:58:05.768Z,23.06
2022-09-09T16:01:12.752Z,23.02
2022-09-09T16:04:18.101Z,22.93
2022-09-09T16:07:23.993Z,22.93
2022-09-09T16:10:30.318Z,22.74
2022-09-09T16:13:36.614Z,22.64
2022-09-09T16:16:43.301Z,22.55
2022-09-09T16:19:48.788Z,22.52
2022-09-09T16:22:53.832Z,22.38
2022-09-09T16:26:05.551Z,22.33
2022-09-09T16:29:07.869Z,22.30
2022-09-09T16:32:14.089Z,22.34
2022-09-09T16:35:20.474Z,22.15
2022-09-09T16:38:25.761Z,22.19
2022-09-09T16:41:31.520Z,22.18
2022-09-09T16:44:37.929Z,22.07
2022-09-09T16:47:44.423Z,22.28
2022-09-09T16:50:49.799Z,22.22
2022-09-09T16:53:55.404Z,21.97
2022-09-09T16:57:03.817Z,22.10
2022-09-09T17:00:08.899Z,21.93
2022-09-09T17:03:13.961Z,21.96
2022-09-09T17:06:24.975Z,21.92
2022-09-09T17:09:31.761Z,21.91
2022-09-09T17:12:42.006Z,21.80
2022-09-09T17:15:45.022Z,21.56
2022-09-09T17:18:51.539Z,21.63
2022-09-09T17:22:16.292Z,21.42
2022-09-09T17:25:05.475Z,21.46
2022-09-09T17:28:12.522Z,21.37
2022-09-09T17:31:19.594Z,21.41
2022-09-09T17:34:25.769Z,21.26
2022-09-09T17:37:31.078Z,21.32
2022-09-09T17:40:36.588Z,21.26
2022-09-09T17:43:35.194Z,21.18
2022-09-09T17:46:45.077Z,21.13
2022-09-09T17:49:50.144Z,21.30
2022-09-09T17:52:56.811Z,21.37
2022-09-09T17:56:03.874Z,21.20
2022-09-09T17:59:10.830Z,21.08
2022-09-09T18:02:17.218Z,21.20
2022-09-09T18:05:23.688Z,21.13
2022-09-09T18:08:33.504Z,21.13
2022-09-09T18:11:40.069Z,21.01
2022-09-09T18:14:46.826Z,20.94
2022-09-09T18:17:52.061Z,20.88
2022-09-09T18:21:00.433Z,20.83
2022-09-09T18:24:05.508Z,20.68
2022-09-09T18:27:12.050Z,20.74
2022-09-09T18:30:18.317Z,20.58
2022-09-09T18:33:17.152Z,20.60
2022-09-09T18:36:25.496Z,20.56
2022-09-09T18:39:31.680Z,20.48
2022-09-09T18:42:37.294Z,20.50
2022-09-09T18:45:43.153Z,20.43
2022-09-09T18:48:50.817Z,20.46
2022-09-09T18:51:59.417Z,20.40
2022-09-09T18:55:04.922Z,20.38
2022-09-09T18:58:12.028Z,20.24
2022-09-09T19:01:18.114Z,20.28
2022-09-09T19:04:26.305Z,20.22
2022-09-09T19:07:32.397Z,20.13
2022-09-09T19:10:40.992Z,20.08
2022-09-09T19:13:47.344Z,20.01
2022-09-09T19:16:54.951Z,20.05
2022-09-09T19:20:02.511Z,19.87
2022-09-09T19:23:07.524Z,19.83
2022-09-09T19:26:15.548Z,20.01
2022-09-09T19:29:23.251Z,20.05
2022-09-09T19:32:52.137Z,19.98
2022-09-09T19:35:35.801Z,19.90
2022-09-09T19:38:42.376Z,19.82
2022-09-09T19:41:48.520Z,19.86
2022-09-09T19:44:53.103Z,19.87
2022-09-09T19:47:58.866Z,19.76
2022-09-09T19:51:04.382Z,19.79
2022-09-09T19:54:05.594Z,19.72
2022-09-09T19:57:04.537Z,19.73
2022-09-09T20:00:10.680Z,19.76
2022-09-09T20:03:19.665Z,19.71
2022-09-09T20:06:24.341Z,19.66
2022-09-09T20:09:34.027Z,19.62
2022-09-09T20:12:39.863Z,19.60
2022-09-09T20:15:45.219Z,19.78
2022-09-09T20:18:54.124Z,19.64
2022-09-09T20:22:01.102Z,19.55
2022-09-09T20:25:08.174Z,19.51
2022-09-09T20:28:13.328Z,19.55
2022-09-09T20:31:29.009Z,19.50
2022-09-09T20:34:36.485Z,19.53
2022-09-09T20:37:41.420Z,19.56
2022-09-09T20:40:49.110Z,19.59
2022-09-09T20:43:56.440Z,19.62
2022-09-09T20:47:05.154Z,19.55
2022-09-09T20:50:09.956Z,19.57
2022-09-09T20:55:49.053Z,19.61
2022-09-09T20:58:54.838Z,19.61
2022-09-09T21:02:01.236Z,19.62
2022-09-09T21:05:07.781Z,19.54
2022-09-09T21:08:16.558Z,19.50
2022-09-09T21:11:24.249Z,19.42
2022-09-09T21:14:29.894Z,19.30
2022-09-09T21:17:36.039Z,19.42
2022-09-09T21:20:42.977Z,19.23
2022-09-09T21:23:48.653Z,19.24
2022-09-09T21:26:49.853Z,19.31
2022-09-09T21:29:56.470Z,19.40
2022-09-09T21:33:02.800Z,19.39
2022-09-09T21:36:07.917Z,19.34
2022-09-09T21:39:13.584Z,19.27
2022-09-09T21:42:21.396Z,19.22
2022-09-09T21:45:26.968Z,19.22
2022-09-09T21:48:34.591Z,19.10
2022-09-09T21:51:40.337Z,18.90
2022-09-09T21:54:48.335Z,18.91
2022-09-09T21:57:54.798Z,19.07
2022-09-09T22:01:01.681Z,19.03
2022-09-09T22:04:06.922Z,18.94
2022-09-09T22:07:13.541Z,19.00
2022-09-09T22:10:20.174Z,18.89
2022-09-09T22:13:26.562Z,18.90
2022-09-09T22:16:34.264Z,18.94
2022-09-09T22:19:41.534Z,18.83
2022-09-09T22:22:46.382Z,18.81
2022-09-09T22:25:53.627Z,18.97
2022-09-09T22:29:00.907Z,18.95
2022-09-09T22:32:05.894Z,18.84
2022-09-09T22:35:10.318Z,18.88
2022-09-09T22:38:15.726Z,18.80
2022-09-09T22:41:14.653Z,18.70
2022-09-09T22:44:00.791Z,18.63
2022-09-09T22:46:53.630Z,18.55
2022-09-09T22:49:52.824Z,18.53
2022-09-09T22:52:59.033Z,18.39
2022-09-09T22:56:14.463Z,18.48
2022-09-09T22:59:20.016Z,18.44
2022-09-09T23:02:27.372Z,18.47
2022-09-09T23:05:36.161Z,18.32
2022-09-09T23:08:48.134Z,18.30
2022-09-09T23:11:55.104Z,18.28
2022-09-09T23:15:04.075Z,18.20
2022-09-09T23:18:03.656Z,18.07
2022-09-09T23:20:56.837Z,17.95
2022-09-09T23:24:02.513Z,17.91
2022-09-09T23:27:07.974Z,17.92
2022-09-09T23:30:14.411Z,17.89
2022-09-09T23:33:19.550Z,18.05
2022-09-09T23:36:27.357Z,17.91
2022-09-09T23:39:32.504Z,17.77
2022-09-09T23:42:40.151Z,17.63
2022-09-09T23:45:45.505Z,17.54
2022-09-09T23:48:51.308Z,17.60
2022-09-09T23:51:57.211Z,17.83
2022-09-09T23:54:57.750Z,17.81
2022-09-09T23:58:03.194Z,17.59
